x

9440910 - Toke Point, Wa (tokw1) Weather Station

9:54 - Wed 18th Jan 2017 All times are PST. -8 hours from GMT.

  • Wind
    21mph, 24mph gusts
  • Sea Temp 46°f
  • Air Temp 47°f
  • Sea Pressure 992.4mb
  • 9440910 - Toke Point, Wa
  • 9440910 - Toke Point, Wa

More Historic Weather Station data

Upgrade to MSW Pro to gain access to the past 30 days of data for over 8000 Wavebouys and Weather Stations around the globe.

Join Pro

Comparision Forecast

View Surf forecast
   
mer. 01/18 9:54 21 24 mph 992.4mb 46f 47f
9:48 14 20 mph - - -
9:42 14 17 mph 992.4mb - -
9:36 15 18 mph 992.5mb - -
9:30 17 21 mph 992.3mb 46f 47f
9:24 15 18 mph 992.2mb 46f 47f
9:18 15 17 mph 992.2mb - -
9:12 15 17 mph 992.3mb 46f 46f
9:06 14 16 mph 992.2mb 46f 46f
9:00 14 17 mph 992.1mb 46f 46f
8:54 15 17 mph 992.1mb 46f 46f
8:48 15 20 mph 991.9mb 46f 47f
8:42 16 18 mph 991.7mb 46f 47f
8:36 17 20 mph 991.6mb 46f 47f
8:30 16 21 mph 991.7mb 46f 47f
8:24 15 20 mph 991.6mb 46f 47f
8:18 15 18 mph 991.5mb 46f 47f
8:12 14 20 mph 991.3mb 46f 47f
8:06 15 18 mph 991.1mb 46f 47f
8:00 10 15 mph 991mb 46f 47f
7:54 13 18 mph 990.8mb 46f 47f
7:48 15 20 mph 990.7mb 46f 47f
7:42 10 13 mph 990.6mb 46f 47f
7:36 6 9 mph 990.4mb 46f 47f
7:30 8 11 mph 990.4mb 46f 47f
7:24 9 14 mph 990.2mb 46f 47f
7:18 10 14 mph 990.1mb 46f -
7:12 7 9 mph 989.9mb 46f 48f
7:06 7 9 mph 989.8mb 46f 48f
7:00 7 8 mph 989.7mb 46f 48f
6:54 7 11 mph 989.5mb 46f 48f
6:48 7 10 mph 989.6mb 46f -
6:42 8 11 mph 989.6mb 46f 48f
6:36 7 10 mph 989.6mb 46f 48f
6:30 7 10 mph 989.5mb 46f 48f
6:24 8 11 mph 989.5mb 46f 48f
6:18 7 9 mph 989.5mb - -
6:12 6 10 mph 989.4mb 46f 48f
6:06 7 9 mph 989.4mb 46f 48f
6:00 7 9 mph 989.4mb 46f 48f
5:54 6 8 mph 989.5mb 46f 48f
5:48 7 11 mph 989.5mb 46f 49f
5:42 8 17 mph 989.5mb 46f 49f
5:36 9 11 mph 989.5mb 46f 49f
5:30 9 10 mph 989.2mb 46f 49f
5:24 3 11 mph 989mb 46f 49f
5:18 9 14 mph 989.3mb 46f 49f
5:12 9 16 mph 989.3mb 46f 49f
5:06 11 15 mph 989.3mb 46f 49f
5:00 10 13 mph 989.5mb 46f 49f
4:54 10 11 mph 989.6mb 46f 49f
4:48 9 10 mph 989.7mb 46f 49f
4:42 9 10 mph 989.8mb 46f 49f
4:36 10 11 mph 989.8mb 46f 49f
4:30 10 14 mph 989.8mb 46f 49f
4:24 10 13 mph 989.8mb 46f 49f
4:18 11 14 mph 989.9mb 46f 49f
4:12 10 13 mph 990mb 46f 49f
4:06 10 14 mph 990.1mb 46f 49f
4:00 11 15 mph 990.2mb 46f 49f
3:54 13 17 mph 990.4mb 46f 49f
3:48 14 18 mph 990.4mb 46f 50f
3:42 15 20 mph 990.5mb 46f 50f
3:36 16 18 mph 990.5mb 46f 50f
3:30 14 18 mph 990.5mb 46f 50f
3:24 14 17 mph 990.6mb 46f 50f
3:18 14 18 mph 990.7mb 46f -
3:12 13 15 mph 990.9mb 46f 49f
3:06 13 14 mph 991mb 46f 49f
3:00 13 15 mph 991.1mb 46f 49f
2:54 13 17 mph 991.1mb 46f 49f
2:48 15 20 mph 991.2mb 46f 49f
2:42 18 22 mph 991.2mb 46f 50f
2:36 18 20 mph 991.3mb 46f 49f
2:30 17 21 mph 991.2mb 46f 49f
2:24 15 16 mph 991.3mb 46f 49f
2:18 15 18 mph 991.2mb 46f -
2:12 16 20 mph 991.5mb 46f 49f
2:06 16 20 mph 991.8mb 46f 49f
2:00 14 18 mph 991.7mb 46f 49f
1:54 15 20 mph 991.8mb 46f 49f
1:48 14 20 mph 992mb 46f -
1:42 15 21 mph 992.1mb 46f 49f
1:36 14 24 mph 992.2mb 46f 49f
1:30 18 24 mph 992.2mb 46f 49f
1:24 20 25 mph 992.1mb 46f 49f
1:18 22 30 mph 992.2mb 46f 50f
1:12 24 30 mph 992.3mb 46f 50f
1:06 24 32 mph 992mb 46f 50f
1:00 22 26 mph 992.2mb 46f 50f
12:54 22 26 mph 992.2mb 46f 50f
12:48 21 28 mph 992.3mb 46f -
12:42 24 30 mph 992.4mb 46f 50f
12:36 24 30 mph 992.2mb 46f 50f
12:30 24 30 mph 992.3mb 46f 50f
12:24 24 32 mph 992.4mb 46f 50f
12:18 25 31 mph 992.3mb 46f -
12:12 25 30 mph 992.5mb 46f 51f
12:06 25 31 mph 992.4mb 46f 51f
12:00 26 31 mph 992.4mb 46f 51f
11:54 23 30 mph 992.3mb 46f 51f
11:48 24 29 mph 992.3mb 46f 51f
11:42 23 28 mph 992.3mb 46f 51f
11:36 24 29 mph 992.4mb 46f 51f
11:30 24 31 mph 992.6mb 46f 51f
11:24 24 31 mph 992.6mb 46f 51f
11:18 26 32 mph - - -
11:12 25 32 mph 992.8mb 46f 51f
11:06 26 33 mph 992.7mb 46f 51f
11:00 28 32 mph 992.8mb 46f 51f
10:54 24 31 mph 992.8mb 46f 51f
10:48 25 32 mph 992.7mb 46f -
10:42 26 32 mph 992.6mb 46f 51f
10:36 25 33 mph 992.6mb 46f 51f
10:30 28 34 mph 992.7mb 46f 51f
10:24 25 29 mph 992.7mb 46f 50f
10:18 25 29 mph 992.6mb 46f 51f
10:12 24 30 mph 992.5mb 46f 51f
10:06 25 33 mph 992.5mb 46f 51f
10:00 24 30 mph 992.6mb 46f 51f
9:54 25 33 mph 992.6mb 46f 51f
9:48 25 31 mph - - -
9:42 24 32 mph 992.5mb 46f 51f
9:36 24 30 mph 992.5mb 46f 51f
9:30 28 32 mph 992.5mb 46f 51f
9:24 28 34 mph 992.6mb 46f 51f
9:18 26 34 mph 992.5mb 46f -
9:12 29 36 mph 992.3mb 46f 51f
9:06 29 36 mph 992.3mb 46f 51f
9:00 29 37 mph 992.2mb 46f 51f
8:54 29 36 mph 992.1mb 46f 51f
8:48 26 37 mph - - -
8:42 30 36 mph 992.1mb 46f 51f
8:36 28 34 mph 992.1mb 46f 51f
8:30 26 32 mph 992.2mb 46f 51f
8:24 28 33 mph 992.2mb 46f 51f
8:18 26 37 mph - - -
8:12 28 39 mph 992.1mb 46f 52f
8:06 30 40 mph 992.1mb 46f 52f
8:00 25 38 mph 992.1mb 46f 52f
7:54 28 34 mph 992.1mb 46f 52f
7:48 30 38 mph 992.1mb - -
7:42 29 40 mph 991.9mb 46f 52f
7:36 29 40 mph 991.8mb 46f 51f
7:30 29 37 mph 991.9mb 46f 51f
7:24 31 43 mph 991.8mb 46f 51f
7:18 36 45 mph 991.6mb 46f 52f
7:12 34 45 mph 991.5mb 46f 52f
7:06 32 44 mph 991.5mb 46f 51f
7:00 32 45 mph - - -
6:54 33 44 mph 991.4mb 46f 52f
6:48 33 45 mph 991.3mb 46f 51f
6:42 30 38 mph 991.2mb 46f 51f
6:36 29 41 mph 991.5mb 46f 51f
6:30 29 43 mph 991.5mb 46f 51f
6:24 26 43 mph 991.4mb 46f 51f
6:18 36 44 mph 991mb 46f 51f
6:12 30 38 mph 991mb 46f 51f
6:06 26 34 mph 991.1mb 46f 51f
6:00 30 43 mph 991.4mb 46f 51f
5:54 30 41 mph 991.3mb 46f 52f
5:48 30 39 mph 991.4mb 46f 52f
5:42 32 44 mph 991.6mb 46f 52f
5:36 32 45 mph 991.7mb 46f 52f
5:30 34 45 mph 991.9mb 46f 52f
5:24 33 41 mph 992mb 46f 52f
5:18 33 43 mph 992.3mb - -
5:12 31 41 mph 992.4mb 46f 52f
5:06 32 46 mph 992.6mb 45f 52f
5:00 30 41 mph 992.7mb 45f 51f
4:54 33 39 mph 992.8mb 45f 51f
4:48 31 39 mph 993mb 45f 51f
4:42 30 38 mph 993.2mb 45f 51f
4:36 30 45 mph 993.3mb 45f 51f
4:30 32 44 mph 993.4mb 45f 52f
4:24 30 40 mph 993.5mb 45f 51f
4:18 33 41 mph 993.5mb 45f 51f
4:12 30 36 mph 993.7mb 45f 51f
4:06 28 38 mph 993.8mb 45f 51f
4:00 28 37 mph 993.7mb 45f 51f
3:54 26 36 mph 993.7mb 45f 51f
3:48 26 34 mph 993.8mb - -
3:42 29 34 mph 994mb 45f 50f
3:36 29 36 mph 994.1mb 45f 50f
3:30 25 30 mph 994.3mb 45f 50f
3:24 26 36 mph 994.4mb 45f 50f
3:18 30 37 mph 994.5mb 45f 50f
3:12 23 28 mph 994.6mb 45f 50f
3:06 24 29 mph 994.8mb 45f 50f
3:00 22 25 mph 994.9mb 45f 49f
2:54 21 24 mph 995.1mb 45f 49f
2:48 21 24 mph 995.3mb 45f 49f
2:42 20 23 mph 995.4mb 45f 49f
2:36 18 23 mph 995.6mb 45f 49f
2:30 18 25 mph 995.7mb 45f 49f
2:24 21 24 mph 995.8mb 45f 49f
2:18 21 30 mph 995.9mb 45f 50f
2:12 22 28 mph 995.9mb 45f 50f
2:06 22 30 mph 996mb 45f 50f
2:00 22 28 mph 996.1mb 45f 50f
1:54 21 32 mph 996.2mb 45f 50f
1:48 22 31 mph 996.3mb 45f 50f
1:42 24 30 mph 996.3mb 45f 50f
1:36 23 28 mph 996.3mb 45f 50f
1:30 22 28 mph 996.4mb 45f 50f
1:24 25 32 mph 996.6mb 45f 50f
1:18 25 32 mph 996.6mb - -
1:12 24 34 mph 996.6mb 45f 50f
1:06 28 34 mph 996.4mb 45f 50f
1:00 25 31 mph 996.4mb 45f 50f
12:54 26 31 mph 996.8mb 45f 50f
12:48 26 33 mph 996.8mb 45f 50f
12:42 28 36 mph 996.7mb 45f 50f
12:36 29 33 mph 996.5mb 45f 50f
12:30 26 34 mph 996.9mb 45f 50f
12:24 29 37 mph 997.1mb 45f 50f
12:18 28 34 mph 996.9mb 45f 50f
12:12 26 37 mph 997.2mb 45f 50f
12:06 30 37 mph 997.1mb 45f 50f
12:00 28 34 mph 997.4mb 45f 50f
mar. 01/17 11:54 29 36 mph 997.4mb 45f 50f
11:48 26 32 mph - - -
11:42 28 40 mph 997.6mb 45f 50f
11:36 31 41 mph 997.4mb 45f 51f
11:30 34 40 mph 996.9mb 45f 50f
11:24 36 40 mph 997.2mb 45f 50f
11:18 31 40 mph 997.4mb 45f 51f
11:12 30 39 mph 997.5mb 45f 50f
11:06 30 38 mph 997.6mb 45f 50f
11:00 30 38 mph 997.8mb 45f 50f
10:54 30 39 mph 997.8mb 45f 50f
10:48 30 37 mph 997.7mb 45f 50f
10:42 32 43 mph 997.5mb 45f 50f
10:36 30 38 mph 997.4mb 45f 50f
10:30 32 38 mph 997.3mb 45f 50f
10:24 29 44 mph 997.6mb 45f 50f
10:18 30 39 mph - - -
10:12 30 39 mph 997.7mb 45f 50f
10:06 30 43 mph 997.6mb 45f 50f
9:54 33 41 mph 997.4mb 45f 49f
9:48 33 39 mph 997.7mb 45f 50f
9:42 31 40 mph 997.9mb 45f 49f
9:36 33 38 mph 997.9mb 45f 50f
9:30 34 47 mph 998mb 45f 50f
9:24 33 40 mph 998.1mb 45f 50f
9:18 33 41 mph 997.9mb 45f 50f
9:12 30 38 mph 998mb 45f 50f
9:06 31 37 mph 998mb 45f 49f
9:00 33 38 mph 998.1mb 46f 50f
8:54 30 39 mph 998.1mb 46f 50f
8:48 29 37 mph - - -
8:42 28 39 mph 998.3mb 45f 49f
8:36 28 39 mph 998.2mb 45f 49f
8:30 28 33 mph 998.2mb 45f 49f
8:24 29 34 mph 998.1mb 45f 49f
8:18 28 46 mph 998.1mb 45f 49f
8:12 31 36 mph 998mb 45f 49f
8:06 29 37 mph 998mb 45f 49f
8:00 30 38 mph 998.1mb 45f 49f
7:54 28 37 mph 998.1mb 45f 49f
7:48 30 40 mph 998mb 45f 50f
7:42 32 40 mph 998.1mb 46f 50f
7:36 30 39 mph 997.9mb 45f 50f
7:30 30 47 mph 997.9mb 45f 50f
7:24 31 41 mph 997.8mb 45f 50f
7:18 36 45 mph 997.7mb 46f -
7:12 33 45 mph 997.7mb 46f 50f
7:06 33 49 mph 997.7mb 45f 50f
7:00 34 43 mph 997.6mb 45f 50f
6:54 34 48 mph 997.6mb 45f 50f
6:48 37 45 mph 997.6mb - -
6:42 37 48 mph 997.4mb 45f 50f
6:36 39 45 mph 997.5mb 45f 50f
6:30 36 48 mph 997.5mb 45f 50f
6:24 38 48 mph 997.6mb 45f 50f
6:18 38 47 mph 997.6mb 45f 50f
6:12 36 45 mph 997.7mb 45f 50f
6:06 32 45 mph 997.7mb 45f 50f
6:00 36 47 mph 997.8mb 45f 49f
5:54 33 45 mph 997.9mb 45f 49f
5:48 37 44 mph 997.9mb 45f -
5:42 38 48 mph 998mb 45f 49f
5:36 34 41 mph 998mb 45f 50f
5:30 32 45 mph 998.1mb 45f 49f
5:24 36 44 mph 998.1mb 45f 50f
5:18 32 43 mph 998.3mb 45f 49f
5:12 34 51 mph 998.3mb 45f 50f
5:06 33 44 mph 998.3mb 45f 49f
5:00 33 44 mph 998.4mb 45f 49f
4:54 33 46 mph 998.4mb 45f 49f
4:48 34 44 mph 998.4mb 45f 49f
4:42 32 41 mph 998.4mb 45f 49f
4:36 31 45 mph 998.4mb 45f 49f
4:30 33 40 mph 998.4mb 45f 49f
4:24 31 37 mph 998.4mb 45f 49f
4:18 28 40 mph 998.6mb 45f -
4:12 31 39 mph 998.6mb 45f 48f
4:06 32 40 mph 998.8mb 45f 48f
4:00 31 43 mph 998.8mb 45f 48f
3:54 32 38 mph 998.9mb 45f 48f
3:48 32 45 mph 998.8mb 45f -
3:42 31 38 mph 998.9mb 45f 49f
3:36 33 40 mph 999mb 45f 48f
3:30 24 37 mph 999.2mb 45f 48f
3:24 28 36 mph 999.1mb 45f 48f
3:18 29 40 mph 999.2mb 45f -
3:12 33 41 mph 999.1mb 45f 48f
3:06 32 39 mph 999.2mb 45f 48f
3:00 31 37 mph 999.3mb 45f 48f
2:54 29 36 mph 999.3mb 45f 48f
2:48 28 36 mph 999.5mb 45f 48f
2:42 28 37 mph 999.7mb 45f 48f
2:36 25 30 mph 999.7mb 45f 48f
2:30 24 30 mph 999.9mb 45f 48f
2:24 25 29 mph 1000.1mb 45f 48f
2:18 24 31 mph 1000.3mb 45f -
2:12 24 30 mph 1000.6mb 44f 49f
2:06 17 23 mph 1000.9mb 44f 48f
2:00 20 23 mph 1000.8mb 45f 48f
1:54 18 22 mph 1000.8mb 44f 48f
1:48 16 21 mph 1000.9mb - -
1:42 16 28 mph 1001.2mb 45f 48f
1:36 20 26 mph 1001.4mb 44f 48f
1:30 25 30 mph 1001.3mb 44f 49f
1:24 23 34 mph 1001.5mb 45f 49f
1:18 22 30 mph 1001.6mb 45f 48f
1:12 24 33 mph 1001.8mb 45f 48f
1:06 24 31 mph 1002.2mb 45f 48f
1:00 22 31 mph 1002.6mb 45f 47f
12:54 28 32 mph 1003.1mb 45f 48f
12:48 28 37 mph 1003.4mb 45f -
12:42 22 28 mph 1003.5mb 45f 49f
12:36 21 25 mph 1003.6mb 44f 49f
12:30 20 22 mph 1003.8mb 44f 49f
12:24 18 24 mph 1004.1mb 44f 49f
12:18 20 24 mph 1004.3mb 44f -
12:12 21 28 mph 1004.5mb 44f 49f
12:06 21 30 mph 1004.4mb 44f 49f
12:00 22 28 mph 1004.7mb 44f 50f
11:54 21 24 mph 1004.7mb 44f 49f
11:48 18 29 mph 1005mb 44f 49f
11:42 20 26 mph 1005mb 44f 49f
11:36 22 26 mph 1005.1mb 44f 49f
11:30 22 29 mph 1005.1mb 44f 49f
11:24 23 28 mph 1005.2mb 45f 49f
11:18 21 26 mph 1005.4mb - -
11:12 23 28 mph 1005.8mb 45f 49f
11:06 20 24 mph 1005.8mb 45f 49f
11:00 17 23 mph 1005.7mb 45f 49f
10:54 17 25 mph 1005.6mb 45f 49f
10:48 17 23 mph 1005.6mb 45f -
10:42 18 26 mph 1005.6mb 45f 49f
10:36 22 29 mph 1005.7mb 45f 49f
10:30 23 31 mph 1005.7mb 45f 49f
10:24 22 30 mph 1006.3mb 45f 49f
10:18 21 25 mph 1006.3mb 45f 49f
10:12 22 29 mph 1006.4mb 45f 49f
10:06 22 29 mph 1006.5mb 44f 49f
10:00 23 26 mph 1006.4mb 44f 50f
9:54 24 29 mph 1006.4mb 45f 50f
9:48 22 30 mph 1006.2mb - -
9:42 23 34 mph 1006.1mb 45f 50f
9:36 22 30 mph 1006.2mb 45f 49f
9:30 23 26 mph 1006.2mb 45f 50f
9:24 23 30 mph 1006.3mb 45f 49f
9:18 21 25 mph 1006.3mb 44f 49f
9:12 23 28 mph 1006.2mb 44f 49f
9:06 23 28 mph 1006.4mb 44f 50f
9:00 22 25 mph 1006.2mb 45f 49f
8:54 20 23 mph 1006.1mb 45f 49f
8:48 17 22 mph 1006.3mb 44f -
8:42 20 23 mph 1006.2mb 45f 49f
8:36 16 22 mph 1006.2mb 44f 49f
8:30 18 23 mph 1006.3mb 45f 49f
8:24 18 23 mph 1006.3mb 45f 49f
8:18 20 24 mph 1006.3mb - -
8:12 17 22 mph 1006.3mb 44f 49f
8:06 18 23 mph 1006.2mb 44f 49f
8:00 20 25 mph 1006.2mb 45f 49f
7:54 20 23 mph 1006.4mb 45f 49f
7:48 18 22 mph 1006.3mb - -
7:42 17 21 mph 1006.2mb 45f 49f
7:36 20 25 mph 1006.1mb 44f 49f
7:30 22 26 mph 1006mb 44f 50f
7:24 20 25 mph 1006.1mb 45f 50f
7:18 18 23 mph 1006.1mb 45f -
7:12 17 23 mph 1006.1mb 45f 50f
7:06 17 24 mph 1006.2mb 45f 50f
7:00 21 26 mph 1006.3mb 45f 50f
6:54 20 23 mph 1006.4mb 45f 49f
6:48 17 20 mph 1006.5mb 45f 49f
6:42 17 21 mph 1006.7mb 45f 50f
6:36 17 20 mph 1006.7mb 45f 50f
6:30 17 20 mph 1006.7mb 45f 50f
6:24 16 21 mph 1006.8mb 45f 49f
6:18 16 22 mph 1006.9mb 45f 49f
6:12 17 23 mph 1007mb 45f 49f
6:06 20 24 mph 1007.1mb 45f 49f
6:00 20 24 mph 1007.1mb 45f 49f
5:54 17 24 mph 1007.1mb 45f 49f
5:48 18 22 mph 1007.3mb - -
5:42 18 22 mph 1007.3mb 45f 49f
5:36 20 23 mph 1007.3mb 45f 49f
5:30 18 23 mph 1007.6mb 45f 49f
5:24 16 21 mph 1007.9mb 45f 48f
5:18 15 18 mph 1008.2mb - -
5:12 13 15 mph 1008.4mb 45f 47f
5:06 14 16 mph 1008.6mb 45f 47f
5:00 14 17 mph 1008.6mb 45f 47f
4:54 14 15 mph 1008.6mb 45f 47f
4:48 13 17 mph 1008.9mb 45f -
4:42 17 20 mph 1009.3mb 45f 47f
4:36 11 20 mph 1009.3mb 45f 48f
4:30 15 17 mph 1009.4mb 45f 49f
4:24 14 17 mph 1009.5mb 45f 49f
4:18 15 21 mph 1009.3mb 45f -
4:12 17 25 mph 1009.2mb 45f 50f
4:06 18 25 mph 1008.9mb 45f 51f
4:00 20 26 mph 1009mb 45f 51f
3:54 22 28 mph 1008.8mb 45f 51f
3:48 24 31 mph 1008.7mb - -
3:42 23 29 mph 1009mb 45f 51f
3:36 22 28 mph 1009.3mb 45f 51f
3:30 22 26 mph 1009.5mb 45f 51f
3:24 22 25 mph 1009.8mb 45f 51f
3:18 21 24 mph 1010mb 45f -
3:12 22 26 mph 1010.1mb 45f 50f
3:06 20 24 mph 1010.5mb 45f 50f
3:00 18 22 mph 1010.6mb 45f 50f
2:54 17 21 mph 1010.8mb 44f 50f
2:48 17 21 mph 1011mb - -
2:42 16 18 mph 1011.3mb 44f 50f
2:36 16 21 mph 1011.4mb 44f 50f
2:30 16 17 mph 1011.7mb 44f 50f
2:24 14 16 mph 1011.8mb 44f 49f
2:18 11 14 mph - - -
2:12 10 14 mph 1012mb 44f 48f
2:06 9 11 mph 1011.9mb 44f 47f
2:00 10 13 mph 1012mb 44f 47f
1:54 10 11 mph 1012.1mb 44f 48f
1:48 10 13 mph 1012.1mb 44f -
1:42 6 7 mph 1012.2mb 44f 47f
1:36 6 8 mph 1012.2mb 44f 48f
1:30 3 6 mph 1012.3mb 44f 48f
1:24 2 7 mph 1012.1mb 44f 48f
1:18 5 7 mph 1012mb - -
1:12 6 8 mph 1011.9mb 44f 49f
1:06 5 7 mph 1011.7mb 44f 49f
1:00 7
mph
1011.8mb 44f 49f
12:54 6 7 mph 1011.8mb 44f 49f
12:48 6 7 mph 1011.7mb 44f -
12:42 5 6 mph 1011.7mb 44f 47f
12:36 6 8 mph 1011.7mb 44f 47f
12:30 6 9 mph 1011.9mb 44f 47f
12:24 7 9 mph 1011.8mb 43f 47f
12:18 7 8 mph 1011.8mb - -
12:12 6 7 mph 1012mb 43f 47f
12:06 6 9 mph 1012mb 43f 47f
12:00 7 8 mph 1012mb 43f 47f
lun. 01/16 11:54 5 7 mph 1012.2mb 44f 47f
11:48 2 3 mph 1012.4mb 43f -
11:42 2 3 mph 1012.5mb 43f 46f
11:36 2 6 mph 1012.5mb 43f 46f
11:30 3 6 mph 1012.6mb 43f 46f
11:24 5 6 mph 1012.5mb 43f 46f
11:18 6 8 mph 1012.4mb 43f 46f
11:12 6 7 mph 1012.4mb 43f 46f
11:06 7 8 mph 1012.5mb 43f 46f
11:00 3 5 mph 1012.8mb 43f 46f
10:54 1 3 mph 1013mb 43f 46f
10:48 2 3 mph 1012.9mb 43f 46f
10:42 1 2 mph 1012.9mb - -
10:36  -  3 mph 1013.1mb - -
10:30 3 5 mph 1013mb 43f 46f
10:24 3 7 mph 1013mb 44f 46f
10:18 6 8 mph 1012.8mb 44f 46f
10:12 6 7 mph 1012.9mb 44f 46f
10:06 7 8 mph 1013mb 44f 46f
10:00 7 8 mph - - -
9:54 7 8 mph 1013mb 44f 45f
9:48 8 10 mph 1013.1mb 44f 46f
9:42 8 9 mph - - -
9:36 7 8 mph - - -
9:30 7 8 mph 1013.5mb 44f 46f
9:24 6 8 mph 1013.6mb 44f 46f
9:18 7 8 mph 1013.7mb 44f -
9:12 6 8 mph 1013.9mb 44f 46f
9:06 7 8 mph 1013.8mb 45f 47f
9:00 6 8 mph 1014mb 44f 46f
8:54 7 8 mph 1014.1mb 44f 46f
8:48 7 8 mph 1014.1mb 44f 46f
8:42 6 7 mph 1014.2mb 44f 47f
8:36 6
mph
1014.4mb 44f 46f
8:30 6 7 mph 1014.5mb 44f 47f
8:24 5 6 mph 1014.6mb 44f 47f
8:18 5
mph
- - -
8:12 3
mph
1014.6mb 44f 46f
8:06  -  3 mph 1014.7mb 44f 46f
8:00  -  1 mph 1014.8mb 44f 46f
7:54  -  2 mph 1014.8mb 44f 46f
7:48 1 2 mph - - -
7:42  -  2 mph 1014.8mb 44f 46f
7:36  -  1 mph 1014.9mb 44f 46f
7:30 1 3 mph 1014.8mb 44f 46f
7:24 2 3 mph 1014.7mb 44f 46f
7:18 1 2 mph 1014.9mb 45f -
7:12  -  2 mph 1015mb 45f 46f
7:06 1 2 mph 1015.1mb 45f 46f
7:00  -  mph 1015.3mb 44f 46f
6:54  -  1 mph 1015.3mb 44f 46f
6:48 1 2 mph 1015.1mb 44f 46f
6:42 2 3 mph 1015.2mb 44f 46f
6:36 2 3 mph 1015.3mb 45f 46f
6:30 2 3 mph 1015.5mb 45f 46f
6:24 3 5 mph 1015.7mb 45f 46f
6:18 2 3 mph 1015.8mb 45f -
6:12 2 3 mph 1015.9mb 45f 46f
6:06 2 5 mph 1015.8mb 45f 46f
6:00 5 6 mph 1015.6mb 45f 46f
5:54 6 7 mph 1015.7mb 45f 46f
5:48 7 10 mph 1015.8mb 45f 46f
5:42 9 10 mph 1015.8mb 45f 46f
5:36 8 9 mph 1015.9mb 45f 46f
5:30 6 9 mph 1015.9mb 45f 46f
5:24 8 11 mph 1016.1mb 45f 46f
5:18 10 13 mph - - -
5:12 10 13 mph 1016.1mb 45f 46f
5:06 7 10 mph 1016.2mb 44f 46f
5:00 7 9 mph 1016.1mb 45f 47f
4:54 5 7 mph 1016mb 45f 48f
4:48 3
mph
1016mb 45f 48f
4:42 1 5 mph 1015.9mb 45f 48f
4:36 2 6 mph 1015.9mb 45f 48f
4:30 1 2 mph 1015.7mb 46f 48f
4:24 2 5 mph 1015.5mb 46f 49f
4:18 1 2 mph 1015.4mb - -
4:12  -  2 mph 1015.7mb 46f 49f
4:06 2
mph
1015.7mb 46f 49f
4:00 1 2 mph 1016mb 46f 49f
3:54 1 2 mph 1016.2mb 46f 49f
3:48 1 3 mph 1016.2mb 46f -
3:42 1 2 mph 1016.2mb 46f 48f
3:36 1
mph
1016.4mb 46f 48f
3:30  -  1 mph 1016.4mb 46f 48f
3:24  -  3 mph 1016.5mb 46f 48f
3:18 2
mph
1016.6mb 45f 48f
3:12  -  2 mph 1016.6mb 45f 48f
3:06 2 6 mph 1016.6mb 45f 47f
3:00 5 7 mph 1016.5mb 45f 47f
2:54 7 10 mph 1016.3mb 45f 47f
2:48 9 10 mph 1016.1mb 45f -
2:42 6
mph
1016.4mb 45f 46f
2:36 5 8 mph 1016.7mb 45f 46f
2:30 7 9 mph 1016.6mb 45f 46f
2:24 8
mph
1016.6mb 45f 45f
2:18 7 8 mph 1016.7mb 45f 44f
2:12 6 8 mph 1016.9mb 45f 46f
2:06 8 10 mph 1016.9mb 45f 46f
2:00 10 11 mph 1016.9mb 44f 46f
1:54 10 13 mph 1017mb 44f 46f
1:48 10 11 mph 1017.2mb 44f 45f
1:42 7
mph
1018mb 44f 45f
1:36 6 7 mph 1018.2mb 44f 45f
1:30 5
mph
1018.3mb 44f 46f
1:24 5 6 mph 1018.5mb 44f 45f
1:18 3 5 mph 1018.5mb - -
1:12 3 5 mph 1018.6mb 44f 46f
1:06 3
mph
1018.6mb 44f 46f
1:00 2 3 mph 1018.7mb 44f 46f
12:54 1 3 mph 1019mb 44f 45f
12:48 2 3 mph 1019.2mb 43f 45f
12:42 2
mph
1019.1mb 43f 45f
12:36 2
mph
1018.7mb 43f 44f
12:30 2 3 mph 1018.9mb 43f 44f
12:24 3 5 mph 1018.9mb 43f 44f
12:18 3 8 mph 1018.8mb - -
12:12 8 9 mph 1018.6mb 43f 42f
12:06 7 9 mph 1018.7mb 43f 42f
12:00 8 10 mph 1018.7mb 43f 42f
11:54 9 10 mph 1018.8mb 43f 42f
11:48 9 10 mph - - -
11:42 8 10 mph 1019.1mb 42f 42f
11:36 8 9 mph 1019.2mb 42f 42f
11:30 8 9 mph 1019.4mb 42f 42f
11:24 9 11 mph 1019.5mb 42f 41f
11:18 9 11 mph 1019.6mb 42f 41f
11:12 10 13 mph 1019.7mb 42f 40f
11:06 11 14 mph 1019.8mb 41f 39f
11:00 13 16 mph 1019.7mb 41f 39f
10:54 11 14 mph 1020mb 41f 39f
10:48 11 13 mph 1020.2mb - -
10:42 11 13 mph 1020.3mb 41f 38f
10:36 10 13 mph 1020.5mb 41f 38f
10:30 10 13 mph 1020.6mb 41f 37f
10:24 10 11 mph 1020.7mb 41f 37f
10:18 8 10 mph 1021mb - -
10:12 9 13 mph 1020.9mb 41f 38f
10:06 10 14 mph 1020.9mb 42f 37f
10:00 13 14 mph 1020.8mb 42f 37f
9:54 11 13 mph 1020.9mb 42f 37f
9:48 11 13 mph 1020.9mb 42f -
9:42 10 13 mph 1021mb 42f 37f
9:36 11 14 mph 1020.9mb 42f 37f
9:30 11 14 mph 1020.8mb 43f 37f
9:24 11 13 mph 1020.8mb 43f 36f
9:18 9 10 mph - - -
9:12 8 9 mph 1021.1mb 43f 37f
9:06 7 8 mph 1021.1mb 43f 37f
9:00 5 7 mph 1021.3mb 42f 38f
8:54 7 9 mph 1021.2mb 42f 37f
8:48 9 11 mph - - -
8:42 11 14 mph 1020.9mb 43f 37f
8:36 11 14 mph 1020.8mb 43f 37f
8:30 10 14 mph 1020.8mb 43f 37f
8:24 10 11 mph 1020.7mb 43f 38f
8:18 8 13 mph 1021mb 43f 37f
8:12 9 11 mph 1020.9mb 43f 37f
8:06 11 13 mph 1020.8mb 43f 37f
8:00 10 11 mph 1020.9mb 43f 37f
7:54 9 11 mph 1020.9mb 43f 36f
7:48 9 13 mph - - -
7:42 11 16 mph 1020.9mb 43f 37f
7:36 13 15 mph 1020.8mb 44f 37f
7:30 11 14 mph 1020.7mb 43f 37f
7:24 9 14 mph 1020.8mb 44f 36f
7:18 11 14 mph 1020.8mb 43f -
7:12 11 17 mph 1020.9mb 43f 36f
7:06 15 17 mph 1020.8mb 43f 36f
7:00 14 17 mph 1020.9mb 44f 36f
6:54 16 17 mph 1021.1mb 44f 37f
6:48 17 18 mph - - -
6:42 14 17 mph 1021.2mb 44f 38f
6:36 15 16 mph 1021mb 44f 38f
6:30 14 15 mph 1021.2mb 43f 38f
6:24 11 14 mph 1021.6mb 44f 38f
6:18 14 15 mph - - -
6:12 13 16 mph 1021.7mb 45f 38f
6:06 15 17 mph 1021.8mb 43f 38f
6:00 14 15 mph 1021.9mb 44f 37f
5:54 13 15 mph 1022.1mb 43f 37f
5:48 15 16 mph 1022.1mb 44f 38f
5:42 11 15 mph 1022.1mb 44f 38f
5:36 15 16 mph 1022.1mb 44f 37f
5:30 14 16 mph 1022.2mb 44f 37f
5:24 14 15 mph 1022.2mb 45f 37f
5:18 13 14 mph 1022.3mb - -
5:12 13 14 mph 1022.4mb 45f 38f
5:06 11 14 mph 1022.5mb 46f 38f
5:00 11 13 mph 1022.6mb 46f 38f
4:54 11 13 mph 1022.8mb 46f 38f
4:48 10 11 mph 1023mb 46f 37f
4:42 10 11 mph 1023.1mb 45f 37f
4:36 9 13 mph 1023.2mb 45f 37f
4:30 11 13 mph 1023.2mb 46f 37f
4:24 10 11 mph 1023.3mb 46f 37f
4:18 10 13 mph 1023.4mb - -
4:12 10 13 mph 1023.4mb 45f 37f
4:06 11 13 mph 1023.3mb 45f 37f
4:00 11 13 mph 1023.3mb 46f 37f
3:54 10 11 mph 1023.4mb 46f 37f
3:48 9 10 mph 1023.4mb 46f 38f
3:42 8 9 mph 1023.7mb 46f 38f
3:36 8 9 mph 1023.7mb 45f 38f
3:30 8 10 mph 1023.7mb 45f 38f
3:24 9 10 mph 1023.5mb 45f 38f
3:18 9 11 mph 1023.5mb 45f 38f
3:12 9 11 mph 1023.6mb 45f 38f
3:06 10 13 mph 1023.5mb 45f 38f
3:00 11 13 mph 1023.3mb 45f 38f
2:54 10 11 mph 1023.3mb 45f 38f
2:48 9 10 mph 1023.5mb 45f -
2:42 8 9 mph 1023.7mb 45f 38f
2:36 8
mph
1023.8mb 45f 38f
2:30 7 10 mph 1023.9mb 45f 38f
2:24 9 11 mph 1023.7mb 45f 38f
2:18 10 11 mph 1023.6mb - -
2:12 10 11 mph 1023.6mb 44f 38f
2:06 11 14 mph 1023.6mb 44f 38f
2:00 11 14 mph 1023.5mb 44f 38f
1:54 8 11 mph 1023.7mb 44f 38f
1:48 10 11 mph 1023.6mb 44f 39f
1:42 8 9 mph 1023.7mb 44f 39f
1:36 8 10 mph 1023.9mb 43f 39f
1:30 9 13 mph 1023.6mb 43f 38f
1:24 11 13 mph 1023.3mb 43f 39f
1:18 6
mph
- - -
1:12 6 8 mph 1023.6mb 43f 41f
1:06 7 9 mph 1023.6mb 43f 41f
1:00 9
mph
1023.6mb 43f 41f
12:54 9 10 mph 1023.7mb 42f 40f
12:48 6 7 mph 1023.9mb 42f 39f
12:42 6 9 mph 1024mb 42f 38f
12:36 6 10 mph 1024.1mb 42f 38f
12:30 10 11 mph 1024.1mb 42f 38f
12:24 9 15 mph 1023.9mb 42f 38f
12:18 14 16 mph 1023.7mb 42f 38f
12:12 15 16 mph 1023.4mb 41f 38f
12:06 14 16 mph 1023.6mb 41f 38f
12:00 15 16 mph 1023.5mb 42f 38f
dim. 01/15 11:54 15 17 mph 1023.5mb 42f 38f
11:48 14 15 mph 1023.7mb 42f 38f
11:42 11 14 mph 1024mb 41f 38f
11:36 13 14 mph 1024.1mb 41f 38f
11:30 10 13 mph 1024.3mb 41f 38f
11:24 10 13 mph 1024.4mb 41f 37f
11:18 9 15 mph 1024.3mb - -
11:12 14 16 mph 1024.2mb 41f 36f
11:06 14 16 mph 1024.1mb 41f 36f
11:00 10 11 mph 1024.3mb 41f 37f
10:54 9 13 mph 1024.4mb 41f 37f
10:48 11 13 mph 1024.3mb 41f 37f
10:42 9 11 mph 1024.3mb - -
10:36 8 9 mph 1024.5mb - -
10:30 5 7 mph 1024.9mb - -
10:24 6 7 mph 1025.1mb 42f 37f
10:18 7 9 mph 1025.1mb 42f 36f
10:12 9
mph
1025.2mb 42f 36f
10:06 6
mph
1025.1mb 42f 36f
10:00 5 6 mph 1025mb 42f 36f
9:54 6 7 mph 1024.8mb 42f 36f
9:48 3
mph
- - -
9:42 2 5 mph 1024.8mb 42f 37f
9:36 3 5 mph 1024.6mb 42f 37f
9:30 5 7 mph 1024.6mb 42f 37f
9:24 7 9 mph 1024.5mb 42f 36f
9:18 7
mph
1024.5mb 43f 37f
9:12 2 3 mph 1024.7mb 42f 37f
9:06 1 2 mph 1024.8mb 43f 37f
9:00 1 2 mph 1024.9mb 43f 37f
8:54  -  5 mph 1024.9mb 42f 37f
8:48 5 6 mph 1024.6mb 43f 37f
8:42 2 3 mph 1024.5mb 42f 37f
8:36 2 3 mph 1024.4mb 43f 37f
8:30 2 5 mph 1024.6mb 43f 37f
8:24 5 6 mph 1024.6mb 43f 37f
8:18 5 6 mph 1024.7mb 43f 37f
8:12 5 6 mph 1024.5mb 43f 37f
8:06 5 6 mph 1024.5mb 43f 38f
8:00 3 8 mph 1024.5mb 43f 38f
7:54 7 8 mph 1024.6mb 43f 39f
7:48 7 10 mph 1024.6mb 43f 40f
7:42 9 10 mph 1024.5mb 43f 40f
7:36 9 11 mph 1024.4mb 43f 40f
7:30 10 15 mph 1024.4mb 43f 40f
7:24 8 9 mph 1024.4mb 43f 40f
7:18 8 10 mph 1024.6mb 43f 40f
7:12 9 10 mph 1024.4mb 44f 40f
7:06 9 13 mph 1024.4mb 43f 40f
7:00 11 14 mph 1024.1mb 44f 40f
6:54 13 15 mph 1023.9mb 44f 40f
6:48 13 15 mph 1024mb 44f -
6:42 14 16 mph 1023.9mb 44f 41f
6:36 13 15 mph 1024.1mb 44f 40f
6:30 10 13 mph 1024mb 44f 41f
6:24 11 15 mph 1023.9mb 44f 42f
6:18 13 16 mph 1023.9mb 44f 42f
6:12 15 16 mph 1024mb 44f 42f
6:06 10 14 mph 1024.1mb 44f 42f
6:00 9 15 mph 1024.2mb 45f 42f
5:54 17 22 mph 1023.5mb 44f 42f
5:48 14 15 mph 1024.2mb 45f 41f
5:42 13 14 mph 1024.9mb 44f 41f
5:36 8 9 mph 1025.2mb 45f 41f
5:30 8 9 mph 1025.3mb 44f 42f
5:24 2 5 mph 1025.3mb 45f 42f
5:18 2 5 mph 1025.3mb 44f 41f
5:12 3 5 mph 1025.3mb 44f 41f
5:06 5 6 mph 1025.4mb 45f 40f
5:00 5 6 mph 1025.4mb 45f 41f
4:54 3 5 mph 1025.5mb 46f 41f
4:48 2 3 mph - - -
4:42  -  1 mph 1025.5mb 45f 45f
4:36 2
mph
1025.4mb 45f 45f
4:30 2 3 mph 1025.4mb 44f 45f
4:24 3 5 mph 1025.4mb 45f 45f
4:18 3 5 mph - - -
4:12 3 5 mph 1025.3mb 45f 46f
4:06 3 5 mph 1025.1mb 45f 46f
4:00 3 6 mph 1025mb 45f 46f
3:54 6
mph
1025.1mb 45f 46f
3:48 5
mph
1025mb 46f -
3:42 5 7 mph 1025mb 46f 46f
3:36 5 6 mph 1025mb 46f 46f
3:30 3 6 mph 1025mb 46f 46f
3:24 5 7 mph 1024.9mb 46f 46f
3:18 6 7 mph 1024.9mb 46f -
3:12 6 7 mph 1024.8mb 46f 45f
3:06 6
mph
1024.7mb 46f 45f
3:00 5 6 mph 1024.7mb 46f 46f
2:54 3 5 mph 1024.7mb 46f 46f
2:48 1 2 mph 1024.6mb 46f -
2:42 1 2 mph 1024.5mb 46f 48f
2:36  -  2 mph 1024.4mb 45f 48f
2:30  -  2 mph 1024.4mb 45f 48f
2:24 2 5 mph 1024.4mb 45f 45f
2:18 3 5 mph 1024.2mb 45f -
2:12 5 6 mph 1024.1mb 45f 44f
2:06 5 6 mph 1024.1mb 45f 44f
2:00 5 6 mph 1024.2mb 45f -
1:54 5
mph
1024.1mb 45f 44f
1:48 2 3 mph 1024.3mb 45f -
1:42 2
mph
1024.6mb 44f 46f
1:36  -  1 mph 1024.6mb 44f 46f
1:30  -  1 mph 1024.6mb 44f 46f
1:24 1 2 mph 1024.6mb 44f 45f
1:18  -  2 mph 1024.5mb 44f 44f
1:12 2 3 mph 1024.5mb 44f 43f
1:06 1 3 mph 1024.6mb 44f 44f
1:00 5
mph
1024.5mb 44f 43f
12:54 5 6 mph 1024.5mb 44f 43f
12:48 5 7 mph 1024.5mb - -
12:42 6 8 mph 1024.6mb 44f 42f
12:36 8 10 mph 1024.5mb 44f 42f
12:30 10 13 mph 1024.4mb 44f 42f
12:24 9 13 mph 1024.5mb 44f 41f
12:18 10 11 mph 1024.5mb - -
12:12 10 14 mph 1024.5mb 44f 40f
12:06 11 14 mph 1024.5mb 44f 40f
12:00 10
mph
1024.6mb 44f 40f
11:54 8 9 mph 1024.8mb 44f 39f
11:48 8 10 mph 1024.8mb 44f 38f
11:42 10 11 mph 1024.8mb 43f 38f
11:36 10 13 mph 1024.8mb 43f 38f
11:30 11 13 mph 1024.9mb 42f 38f
11:24 13 14 mph 1025mb 42f 38f
11:18 11 14 mph 1025.1mb 42f 38f
11:12 14 15 mph 1025.2mb 42f 37f
11:06 13 14 mph 1025.2mb 42f 37f
11:00 10 11 mph 1025.4mb 42f -
10:54 9 10 mph 1025.5mb 42f 36f
10:48 8 10 mph 1025.6mb 42f 36f
10:42 10 11 mph 1025.6mb - -
10:36 11 13 mph 1025.6mb 41f 35f
10:30 10 11 mph 1025.6mb 41f 35f
10:24 9 11 mph 1025.5mb 41f 35f
10:18 10 11 mph 1025.5mb 41f 35f
10:12 10 13 mph 1025.5mb 40f 35f
10:06 11 13 mph 1025.5mb 41f 35f
10:00 10 13 mph 1025.5mb 41f 34f
9:54 9 11 mph 1025.6mb 41f 34f
9:48 9 10 mph 1025.7mb 41f 34f
9:42 9 10 mph 1025.8mb 41f 33f
9:36 9 11 mph 1025.8mb 41f 33f
9:30 9 10 mph 1025.8mb 41f 33f
9:24 8 10 mph 1025.8mb 41f 33f
9:18 8 9 mph 1025.8mb 41f -
9:12 8 9 mph 1025.8mb 41f 33f
9:06 8 9 mph 1025.8mb 41f 33f
9:00 9 11 mph 1025.7mb 41f 33f
8:54 9 11 mph 1025.6mb 41f 33f
8:48 10 11 mph 1025.6mb 41f 33f
8:42 9 10 mph 1025.7mb 41f 34f
8:36 8 9 mph 1025.6mb 41f 34f
8:30 7 8 mph 1025.5mb 41f 34f
8:24 7 9 mph 1025.5mb 41f 34f
8:18 8 9 mph 1025.5mb 41f 35f
8:12 9 10 mph 1025.4mb 41f 34f
8:06 9 10 mph 1025.2mb 41f 34f
8:00 8 10 mph 1025.2mb 41f 33f
7:54 8 9 mph 1025.3mb 41f 33f
7:48 7 8 mph 1025.3mb 41f 33f
7:42 6 8 mph 1025.3mb 41f 33f
7:36 8 10 mph 1025.1mb 42f 33f
7:30 8 9 mph 1025mb 42f 33f
7:24 7 10 mph 1024.9mb 42f 33f
7:18 9 10 mph 1024.7mb 42f 33f
7:12 9 11 mph 1024.6mb 42f 34f
7:06 9 11 mph 1024.5mb 42f 34f
7:00 10 11 mph 1024.6mb 42f 34f
6:54 10 11 mph 1024.6mb 43f 33f
6:48 10 11 mph 1024.6mb 43f 34f
6:42 10 11 mph 1024.8mb 43f 33f
6:36 9 11 mph 1025mb 42f 34f